createdAt,value
2022-09-14T04:01:28.336Z,98987.34
2022-09-14T04:03:56.782Z,98988.40
2022-09-14T04:06:26.662Z,98993.50
2022-09-14T04:08:56.726Z,98999.64
2022-09-14T04:11:25.947Z,99001.36
2022-09-14T04:13:55.405Z,99002.70
2022-09-14T04:16:24.098Z,98999.02
2022-09-14T04:18:53.746Z,99001.00
2022-09-14T04:21:26.317Z,99003.27
2022-09-14T04:24:13.999Z,98998.90
2022-09-14T04:26:46.450Z,98997.23
2022-09-14T04:29:16.276Z,99002.39
2022-09-14T04:31:45.140Z,99001.88
2022-09-14T04:34:15.359Z,99003.90
2022-09-14T04:36:44.579Z,99003.90
2022-09-14T04:39:14.667Z,99004.16
2022-09-14T04:41:46.213Z,99009.36
2022-09-14T04:44:16.416Z,99015.66
2022-09-14T04:46:47.075Z,99010.46
2022-09-14T04:49:19.143Z,99010.58
2022-09-14T04:51:48.453Z,99008.45
2022-09-14T04:54:19.368Z,99005.27
2022-09-14T04:56:48.010Z,98998.58
2022-09-14T04:59:16.554Z,99003.55
2022-09-14T05:01:48.053Z,99001.70
2022-09-14T05:04:18.218Z,99003.49
2022-09-14T05:06:47.365Z,99007.32
2022-09-14T05:09:17.283Z,99012.38
2022-09-14T05:11:46.829Z,99016.80
2022-09-14T05:14:15.814Z,99015.73
2022-09-14T05:16:45.124Z,99014.90
2022-09-14T05:19:17.808Z,99014.42
2022-09-14T05:21:47.651Z,99013.54
2022-09-14T05:24:18.169Z,99013.79
2022-09-14T05:26:50.073Z,99012.30
2022-09-14T05:29:20.126Z,99014.63
2022-09-14T05:31:50.001Z,99011.48
2022-09-14T05:34:19.919Z,99011.65
2022-09-14T05:36:48.479Z,99011.69
2022-09-14T05:39:22.523Z,99012.52
2022-09-14T05:41:53.124Z,99009.79
2022-09-14T05:44:21.871Z,99011.23
2022-09-14T05:46:51.649Z,99010.52
2022-09-14T05:49:20.937Z,99014.84
2022-09-14T05:51:50.136Z,99009.70
2022-09-14T05:54:19.491Z,99016.36
2022-09-14T05:56:48.893Z,99017.57
2022-09-14T05:59:18.340Z,99022.13
2022-09-14T06:01:47.440Z,99026.29
2022-09-14T06:04:16.688Z,99023.90
2022-09-14T06:06:56.146Z,99027.04
2022-09-14T06:09:35.099Z,99028.39
2022-09-14T06:12:04.340Z,99023.80
2022-09-14T06:14:34.235Z,99024.97
2022-09-14T06:17:03.856Z,99029.53
2022-09-14T06:19:33.500Z,99030.02
2022-09-14T06:22:04.936Z,99025.73
2022-09-14T06:24:34.277Z,99027.55
2022-09-14T06:27:03.541Z,99031.42
2022-09-14T06:29:32.657Z,99032.14
2022-09-14T06:32:01.848Z,99034.27
2022-09-14T06:34:31.107Z,99035.42
2022-09-14T06:37:00.291Z,99036.41
2022-09-14T06:39:29.890Z,99036.33
2022-09-14T06:41:58.375Z,99040.55
2022-09-14T06:44:28.003Z,99038.99
2022-09-14T06:46:57.329Z,99039.16
2022-09-14T06:49:26.340Z,99044.61
2022-09-14T06:51:56.822Z,99047.52
2022-09-14T06:54:25.756Z,99045.30
2022-09-14T06:56:55.526Z,99045.30
2022-09-14T06:59:24.626Z,99048.23
2022-09-14T07:01:53.136Z,99047.77
2022-09-14T07:04:21.997Z,99047.45
2022-09-14T07:06:51.140Z,99053.04
2022-09-14T07:09:21.305Z,99046.70
2022-09-14T07:11:52.834Z,99051.91
2022-09-14T07:14:22.321Z,99053.91
2022-09-14T07:16:51.161Z,99058.30
2022-09-14T07:19:19.842Z,99059.66
2022-09-14T07:21:50.346Z,99059.70
2022-09-14T07:24:19.216Z,99058.60
2022-09-14T07:26:48.880Z,99058.30
2022-09-14T07:29:20.434Z,99057.86
2022-09-14T07:31:53.105Z,99058.87
2022-09-14T07:34:22.482Z,99060.73
2022-09-14T07:36:51.123Z,99055.66
2022-09-14T07:39:20.315Z,99059.73
2022-09-14T07:41:49.700Z,99062.17
2022-09-14T07:44:20.001Z,99059.23
2022-09-14T07:46:49.557Z,99053.23
2022-09-14T07:49:18.815Z,99059.13
2022-09-14T07:51:49.230Z,99063.53
2022-09-14T07:54:19.869Z,99066.33
2022-09-14T07:56:50.958Z,99061.66
2022-09-14T07:59:37.265Z,99059.42
2022-09-14T08:02:12.364Z,99060.61
2022-09-14T08:04:41.362Z,99060.84
2022-09-14T08:07:10.774Z,99051.89
2022-09-14T08:09:40.232Z,99051.19
2022-09-14T08:12:09.583Z,99055.40
2022-09-14T08:14:38.858Z,99059.00
2022-09-14T08:17:07.963Z,99049.98
2022-09-14T08:19:38.211Z,99054.17
2022-09-14T08:22:07.887Z,99061.20
2022-09-14T08:24:39.009Z,99059.80
2022-09-14T08:27:10.125Z,99060.05
2022-09-14T08:29:40.260Z,99055.98
2022-09-14T08:32:13.468Z,99052.71
2022-09-14T08:34:43.080Z,99052.65
2022-09-14T08:37:13.687Z,99055.41
2022-09-14T08:39:43.807Z,99050.15
2022-09-14T08:42:25.949Z,99049.29
2022-09-14T08:45:02.543Z,99045.27
2022-09-14T08:47:39.430Z,99043.48
2022-09-14T08:50:12.826Z,99044.00
2022-09-14T08:52:53.547Z,99046.02
2022-09-14T08:55:54.657Z,99052.05
2022-09-14T08:58:51.600Z,99050.50
2022-09-14T09:01:42.293Z,99048.26
2022-09-14T09:04:24.337Z,99046.67
2022-09-14T09:07:14.993Z,99042.39
2022-09-14T09:09:47.852Z,99037.94
2022-09-14T09:12:21.204Z,99038.52
2022-09-14T09:14:57.987Z,99040.38
2022-09-14T09:17:33.241Z,99044.98
2022-09-14T09:20:13.625Z,99046.71
2022-09-14T09:22:48.544Z,99043.84
2022-09-14T09:25:27.519Z,99044.46
2022-09-14T09:28:11.094Z,99045.72
2022-09-14T09:30:41.950Z,99038.13
2022-09-14T09:33:17.813Z,99040.80
2022-09-14T09:36:08.828Z,99030.86
2022-09-14T09:38:37.859Z,99031.39
2022-09-14T09:41:24.736Z,99034.41
2022-09-14T09:44:01.567Z,99034.73
2022-09-14T09:46:33.304Z,99033.25
2022-09-14T09:49:15.198Z,99034.80
2022-09-14T09:51:45.492Z,99038.95
2022-09-14T09:54:14.751Z,99039.90
2022-09-14T09:56:59.396Z,99040.90
2022-09-14T09:59:42.916Z,99039.34
2022-09-14T10:02:25.677Z,99042.58
2022-09-14T10:05:29.679Z,99038.60
2022-09-14T10:08:11.693Z,99046.86
2022-09-14T10:10:44.885Z,99045.17
2022-09-14T10:13:38.425Z,99046.01
2022-09-14T10:16:19.516Z,99046.56
2022-09-14T10:18:51.443Z,99043.30
2022-09-14T10:21:24.926Z,99041.38
2022-09-14T10:24:20.824Z,99037.08
2022-09-14T10:26:49.620Z,99036.67
2022-09-14T10:29:36.110Z,99037.33
2022-09-14T10:32:18.235Z,99039.25
2022-09-14T10:34:47.171Z,99044.36
2022-09-14T10:37:46.819Z,99041.63
2022-09-14T10:40:24.152Z,99041.73
2022-09-14T10:43:06.214Z,99042.14
2022-09-14T10:46:01.703Z,99041.80
2022-09-14T10:49:14.573Z,99049.28
2022-09-14T10:52:09.033Z,99049.65
2022-09-14T10:55:06.103Z,99049.88
2022-09-14T10:58:07.835Z,99054.12
2022-09-14T11:00:55.975Z,99056.77
2022-09-14T11:03:46.003Z,99053.79
2022-09-14T11:06:35.257Z,99052.39
2022-09-14T11:09:17.293Z,99053.75
2022-09-14T11:12:09.485Z,99054.05
2022-09-14T11:15:09.495Z,99054.02
2022-09-14T11:18:06.288Z,99054.17
2022-09-14T11:21:09.816Z,99056.93
2022-09-14T11:24:11.202Z,99045.48
2022-09-14T11:26:44.888Z,99044.61
2022-09-14T11:29:29.154Z,99043.61
2022-09-14T11:32:21.739Z,99036.66
2022-09-14T11:35:01.336Z,99037.00
2022-09-14T11:37:41.821Z,99041.92
2022-09-14T11:40:16.111Z,99044.91
2022-09-14T11:42:52.265Z,99048.48
2022-09-14T11:45:32.221Z,99044.87
2022-09-14T11:48:42.371Z,99040.62
2022-09-14T11:51:26.784Z,99036.67
2022-09-14T11:53:56.660Z,99040.45
2022-09-14T11:56:32.082Z,99038.17
2022-09-14T11:59:04.599Z,99038.38
2022-09-14T12:01:40.811Z,99042.75
2022-09-14T12:04:15.873Z,99044.17
2022-09-14T12:06:52.340Z,99048.41
2022-09-14T12:09:23.262Z,99044.83
2022-09-14T12:11:58.812Z,99047.04
2022-09-14T12:14:27.742Z,99046.77
2022-09-14T12:17:40.724Z,99048.46
2022-09-14T12:20:36.168Z,99040.23
2022-09-14T12:23:57.985Z,99034.21
2022-09-14T12:26:34.140Z,99036.23
2022-09-14T12:29:08.163Z,99034.86
2022-09-14T12:31:47.919Z,99030.77
2022-09-14T12:34:21.090Z,99036.88
2022-09-14T12:36:50.279Z,99033.33
2022-09-14T12:39:33.329Z,99032.73
2022-09-14T12:42:30.045Z,99036.83
2022-09-14T12:45:19.715Z,99036.48
2022-09-14T12:47:52.629Z,99031.72
2022-09-14T12:50:23.297Z,99035.60
2022-09-14T12:53:02.442Z,99029.36
2022-09-14T12:55:46.486Z,99020.83
2022-09-14T12:58:44.594Z,99019.55
2022-09-14T13:01:31.959Z,99024.34
2022-09-14T13:04:03.389Z,99024.30
2022-09-14T13:06:43.611Z,99026.21
2022-09-14T13:09:27.974Z,99020.30
2022-09-14T13:12:02.922Z,99018.39
2022-09-14T13:14:47.705Z,99015.61
2022-09-14T13:17:18.124Z,99016.52
2022-09-14T13:20:00.225Z,99020.53
2022-09-14T13:22:32.076Z,99023.89
2022-09-14T13:25:01.788Z,99027.02
2022-09-14T13:27:37.407Z,99030.95
2022-09-14T13:30:08.241Z,99024.89
2022-09-14T13:32:44.286Z,99020.90
2022-09-14T13:35:33.919Z,99018.88
2022-09-14T13:38:16.343Z,99020.12
2022-09-14T13:40:47.900Z,99017.88
2022-09-14T13:43:18.667Z,99019.14
2022-09-14T13:45:50.369Z,99023.03
2022-09-14T13:48:21.779Z,99023.09
2022-09-14T13:50:53.123Z,99023.14
2022-09-14T13:53:42.206Z,99022.59
2022-09-14T13:56:22.304Z,99014.70
2022-09-14T13:59:17.663Z,99013.27
2022-09-14T14:02:00.046Z,99003.83
2022-09-14T14:04:38.119Z,99003.13
2022-09-14T14:07:22.813Z,99001.31
2022-09-14T14:09:57.472Z,98997.75
2022-09-14T14:12:28.153Z,98990.59
2022-09-14T14:15:11.683Z,98990.36
2022-09-14T14:17:44.217Z,98996.21
2022-09-14T14:20:32.879Z,98988.09
2022-09-14T14:23:13.620Z,98991.54
2022-09-14T14:25:49.451Z,98991.36
2022-09-14T14:28:25.225Z,98989.03
2022-09-14T14:30:56.367Z,98989.42
2022-09-14T14:33:26.178Z,98992.47
2022-09-14T14:35:57.512Z,98993.69
2022-09-14T14:38:26.572Z,98989.62
2022-09-14T14:40:56.772Z,98986.47
2022-09-14T14:43:27.568Z,98982.94
2022-09-14T14:46:01.839Z,98979.81
2022-09-14T14:48:32.158Z,98978.89
2022-09-14T14:51:02.583Z,98978.77
2022-09-14T14:53:33.972Z,98982.66
2022-09-14T14:56:04.251Z,98979.98
2022-09-14T14:58:36.458Z,98975.83
2022-09-14T15:01:06.212Z,98972.13
2022-09-14T15:03:35.594Z,98973.05
2022-09-14T15:06:18.587Z,98974.36
2022-09-14T15:08:47.827Z,98976.73
2022-09-14T15:11:18.564Z,98975.44
2022-09-14T15:13:47.753Z,98979.99
2022-09-14T15:16:17.732Z,98977.16
2022-09-14T15:18:47.266Z,98980.79
2022-09-14T15:21:16.313Z,98981.36
2022-09-14T15:23:45.202Z,98976.48
2022-09-14T15:26:14.517Z,98970.46
2022-09-14T15:28:43.231Z,98970.08
2022-09-14T15:31:13.705Z,98963.34
2022-09-14T15:33:43.183Z,98966.13
2022-09-14T15:36:13.154Z,98965.14
2022-09-14T15:38:42.390Z,98963.85
2022-09-14T15:41:14.267Z,98962.67
2022-09-14T15:43:44.293Z,98965.14
2022-09-14T15:46:13.190Z,98963.97
2022-09-14T15:48:41.754Z,98965.98
2022-09-14T15:51:12.486Z,98959.14
2022-09-14T15:53:41.266Z,98962.00
2022-09-14T15:56:12.740Z,98965.70
2022-09-14T15:58:50.767Z,98959.29
2022-09-14T16:01:21.125Z,98953.57
2022-09-14T16:03:50.508Z,98946.68
2022-09-14T16:06:19.470Z,98945.22
2022-09-14T16:08:48.989Z,98938.98
2022-09-14T16:11:19.140Z,98945.97
2022-09-14T16:13:50.446Z,98947.88
2022-09-14T16:16:20.789Z,98945.70
2022-09-14T16:18:53.753Z,98948.82
2022-09-14T16:21:24.974Z,98948.13
2022-09-14T16:23:56.631Z,98948.11
2022-09-14T16:26:32.531Z,98952.59
2022-09-14T16:29:01.452Z,98954.88
2022-09-14T16:31:34.703Z,98956.21
2022-09-14T16:34:07.634Z,98956.58
2022-09-14T16:36:39.597Z,98952.16
2022-09-14T16:39:12.296Z,98948.98
2022-09-14T16:41:42.761Z,98946.69
2022-09-14T16:44:16.258Z,98941.10
2022-09-14T16:46:45.165Z,98937.88
2022-09-14T16:49:13.791Z,98937.84
2022-09-14T16:51:43.068Z,98938.23
2022-09-14T16:54:21.630Z,98931.54
2022-09-14T16:56:51.581Z,98929.99
2022-09-14T16:59:21.148Z,98927.29
2022-09-14T17:01:54.301Z,98930.54
2022-09-14T17:04:25.264Z,98928.86
2022-09-14T17:06:56.314Z,98930.08
2022-09-14T17:09:28.672Z,98933.81
2022-09-14T17:11:59.188Z,98934.57
2022-09-14T17:14:33.724Z,98937.05
2022-09-14T17:17:02.215Z,98926.83
2022-09-14T17:19:31.436Z,98926.04
2022-09-14T17:22:01.637Z,98925.77
2022-09-14T17:24:31.130Z,98926.17
2022-09-14T17:27:00.219Z,98931.65
2022-09-14T17:29:29.662Z,98933.95
2022-09-14T17:31:58.401Z,98937.05
2022-09-14T17:34:27.850Z,98939.79
2022-09-14T17:36:57.123Z,98934.07
2022-09-14T17:39:25.889Z,98932.85
2022-09-14T17:41:54.645Z,98932.43
2022-09-14T17:44:26.143Z,98933.13
2022-09-14T17:46:54.789Z,98929.93
2022-09-14T17:49:23.567Z,98931.36
2022-09-14T17:51:53.721Z,98929.66
2022-09-14T17:54:22.218Z,98927.50
2022-09-14T17:56:51.975Z,98929.17
2022-09-14T17:59:21.250Z,98925.94
2022-09-14T18:01:50.859Z,98930.42
2022-09-14T18:04:20.084Z,98930.34
2022-09-14T18:06:50.515Z,98932.19
2022-09-14T18:09:22.050Z,98936.27
2022-09-14T18:11:52.025Z,98935.90
2022-09-14T18:14:21.083Z,98939.85
2022-09-14T18:16:50.876Z,98937.67
2022-09-14T18:19:20.311Z,98935.34
2022-09-14T18:21:52.548Z,98937.20
2022-09-14T18:24:22.166Z,98936.14
2022-09-14T18:26:51.276Z,98935.77
2022-09-14T18:29:21.832Z,98929.81
2022-09-14T18:31:52.852Z,98932.89
2022-09-14T18:34:22.689Z,98928.91
2022-09-14T18:36:52.211Z,98931.24
2022-09-14T18:39:21.242Z,98927.08
2022-09-14T18:41:52.061Z,98924.61
2022-09-14T18:44:21.911Z,98928.21
2022-09-14T18:46:51.915Z,98927.76
2022-09-14T18:49:21.255Z,98928.98
2022-09-14T18:51:50.165Z,98918.13
2022-09-14T18:54:20.214Z,98915.74
2022-09-14T18:56:53.975Z,98916.17
2022-09-14T18:59:22.850Z,98922.48
2022-09-14T19:01:51.605Z,98921.98
2022-09-14T19:04:21.262Z,98916.79
2022-09-14T19:06:50.337Z,98914.20
2022-09-14T19:09:22.299Z,98915.23
2022-09-14T19:11:50.838Z,98917.02
2022-09-14T19:14:20.840Z,98914.37
2022-09-14T19:16:50.888Z,98913.88
2022-09-14T19:19:19.643Z,98909.61
2022-09-14T19:21:48.796Z,98906.14
2022-09-14T19:24:18.565Z,98903.69
2022-09-14T19:26:51.615Z,98901.27
2022-09-14T19:29:23.752Z,98902.29
2022-09-14T19:31:54.387Z,98897.05
2022-09-14T19:34:26.102Z,98892.34
2022-09-14T19:36:55.682Z,98893.73
2022-09-14T19:39:25.935Z,98892.62
2022-09-14T19:41:54.979Z,98892.19
2022-09-14T19:44:24.172Z,98887.97
2022-09-14T19:46:53.363Z,98882.31
2022-09-14T19:49:25.945Z,98879.59
2022-09-14T19:51:55.185Z,98874.48
2022-09-14T19:54:24.409Z,98869.29
2022-09-14T19:56:53.620Z,98869.40
2022-09-14T19:59:23.315Z,98870.66
2022-09-14T20:01:53.172Z,98874.63
2022-09-14T20:04:24.267Z,98874.05
2022-09-14T20:06:53.243Z,98872.27
2022-09-14T20:09:24.646Z,98869.14
2022-09-14T20:11:53.298Z,98864.48
2022-09-14T20:14:25.737Z,98866.26
2022-09-14T20:16:57.724Z,98865.98
2022-09-14T20:19:29.729Z,98865.15
2022-09-14T20:21:58.704Z,98864.33
2022-09-14T20:24:31.354Z,98863.19
2022-09-14T20:27:02.372Z,98864.54
2022-09-14T20:29:35.562Z,98866.77
2022-09-14T20:32:06.212Z,98872.98
2022-09-14T20:34:34.821Z,98872.16
2022-09-14T20:37:03.640Z,98870.64
2022-09-14T20:39:36.161Z,98873.34
2022-09-14T20:42:06.803Z,98871.34
2022-09-14T20:44:35.552Z,98875.31
2022-09-14T20:47:04.276Z,98874.56
2022-09-14T20:49:33.594Z,98875.64
2022-09-14T20:52:03.280Z,98875.06
2022-09-14T20:54:31.763Z,98873.44
2022-09-14T20:59:50.315Z,98871.45
2022-09-14T21:00:25.403Z,98872.85
2022-09-14T21:02:19.115Z,98868.66
2022-09-14T21:04:47.974Z,98866.02
2022-09-14T21:07:17.962Z,98863.67
2022-09-14T21:09:46.616Z,98858.67
2022-09-14T21:12:15.404Z,98860.08
2022-09-14T21:14:45.506Z,98858.20
2022-09-14T21:17:14.104Z,98856.96
2022-09-14T21:19:43.097Z,98854.84
2022-09-14T21:22:11.641Z,98856.05
2022-09-14T21:24:40.170Z,98861.58
2022-09-14T21:27:09.262Z,98866.84
2022-09-14T21:29:38.228Z,98865.91
2022-09-14T21:32:09.103Z,98860.59
2022-09-14T21:34:39.119Z,98850.02
2022-09-14T21:37:09.183Z,98846.21
2022-09-14T21:39:39.417Z,98847.35
2022-09-14T21:42:08.023Z,98848.80
2022-09-14T21:44:38.681Z,98841.83
2022-09-14T21:47:08.798Z,98840.44
2022-09-14T21:49:39.182Z,98839.79
2022-09-14T21:52:08.094Z,98838.02
2022-09-14T21:54:36.893Z,98837.94
2022-09-14T21:57:05.680Z,98836.19
2022-09-14T21:59:34.269Z,98834.55
2022-09-14T22:02:02.692Z,98832.69
2022-09-14T22:04:31.740Z,98832.61
2022-09-14T22:07:00.709Z,98834.90
2022-09-14T22:09:32.260Z,98830.14
2022-09-14T22:12:01.010Z,98827.93
2022-09-14T22:14:30.138Z,98823.48
2022-09-14T22:16:58.722Z,98821.69
2022-09-14T22:19:31.222Z,98828.16
2022-09-14T22:21:59.873Z,98829.14
2022-09-14T22:24:37.054Z,98823.98
2022-09-14T22:27:10.220Z,98822.61
2022-09-14T22:29:44.171Z,98814.33
2022-09-14T22:32:12.804Z,98818.98
2022-09-14T22:34:44.636Z,98817.66
2022-09-14T22:37:15.477Z,98815.27
2022-09-14T22:39:44.507Z,98808.03
2022-09-14T22:42:14.256Z,98816.32
2022-09-14T22:44:42.754Z,98817.98
2022-09-14T22:47:11.271Z,98821.82
2022-09-14T22:49:40.383Z,98822.29
2022-09-14T22:52:09.348Z,98822.67
2022-09-14T22:54:38.029Z,98821.23
2022-09-14T22:57:06.749Z,98819.63
2022-09-14T22:59:36.074Z,98816.08
